<?xml version="1.0" encoding="UTF-8" standalone="no" ?>
<gpx xmlns="http://www.topografix.com/GPX/1/1" xmlns:xsi="http://www.w3.org/2001/XMLSchema-instance" xsi:schemaLocation="http://www.topografix.com/GPX/1/1 http://www.topografix.com/GPX/1/1/gpx.xsd" version="1.1" creator="VisuGPX - https://www.visugpx.com">
  <metadata>
    <name>Lomener - Guidel Plage - Lomener</name>
    <desc><![CDATA[petite ballade sur le chemin qui longe la plage]]></desc>
  </metadata>
  <trk>
    <name><![CDATA[Lomener - Guidel Plage - Lomener_1]]></name>
    <trkseg>
      <trkpt lat="47.70271" lon="-3.43121">
        <ele>5</ele>
        <time>2011-09-02T12:04:54Z</time>
      </trkpt>
      <trkpt lat="47.70267" lon="-3.43146">
        <ele>5</ele>
        <time>2011-09-02T12:04:59Z</time>
      </trkpt>
      <trkpt lat="47.70262" lon="-3.43156">
        <ele>5</ele>
        <time>2011-09-02T12:05:06Z</time>
      </trkpt>
      <trkpt lat="47.70257" lon="-3.43158">
        <ele>5</ele>
        <time>2011-09-02T12:05:08Z</time>
      </trkpt>
      <trkpt lat="47.70244" lon="-3.43153">
        <ele>4</ele>
        <time>2011-09-02T12:05:11Z</time>
      </trkpt>
      <trkpt lat="47.70234" lon="-3.43151">
        <ele>4</ele>
        <time>2011-09-02T12:05:13Z</time>
      </trkpt>
      <trkpt lat="47.70225" lon="-3.43155">
        <ele>4</ele>
        <time>2011-09-02T12:05:15Z</time>
      </trkpt>
      <trkpt lat="47.70221" lon="-3.43157">
        <ele>4</ele>
        <time>2011-09-02T12:05:16Z</time>
      </trkpt>
      <trkpt lat="47.7021" lon="-3.4317">
        <ele>5</ele>
        <time>2011-09-02T12:05:19Z</time>
      </trkpt>
      <trkpt lat="47.70203" lon="-3.43187">
        <ele>5</ele>
        <time>2011-09-02T12:05:22Z</time>
      </trkpt>
      <trkpt lat="47.70196" lon="-3.43257">
        <ele>5</ele>
        <time>2011-09-02T12:05:33Z</time>
      </trkpt>
      <trkpt lat="47.70186" lon="-3.43486">
        <ele>7</ele>
        <time>2011-09-02T12:06:12Z</time>
      </trkpt>
      <trkpt lat="47.70181" lon="-3.43542">
        <ele>7</ele>
        <time>2011-09-02T12:06:22Z</time>
      </trkpt>
      <trkpt lat="47.70173" lon="-3.43586">
        <ele>8</ele>
        <time>2011-09-02T12:06:30Z</time>
      </trkpt>
      <trkpt lat="47.70114" lon="-3.43812">
        <ele>10</ele>
        <time>2011-09-02T12:07:13Z</time>
      </trkpt>
      <trkpt lat="47.70075" lon="-3.43979">
        <ele>12</ele>
        <time>2011-09-02T12:07:40Z</time>
      </trkpt>
      <trkpt lat="47.70071" lon="-3.44005">
        <ele>12</ele>
        <time>2011-09-02T12:07:44Z</time>
      </trkpt>
      <trkpt lat="47.7007" lon="-3.44031">
        <ele>11</ele>
        <time>2011-09-02T12:07:48Z</time>
      </trkpt>
      <trkpt lat="47.70074" lon="-3.44067">
        <ele>11</ele>
        <time>2011-09-02T12:07:53Z</time>
      </trkpt>
      <trkpt lat="47.70084" lon="-3.44102">
        <ele>11</ele>
        <time>2011-09-02T12:07:58Z</time>
      </trkpt>
      <trkpt lat="47.701" lon="-3.44132">
        <ele>11</ele>
        <time>2011-09-02T12:08:03Z</time>
      </trkpt>
      <trkpt lat="47.70119" lon="-3.44154">
        <ele>11</ele>
        <time>2011-09-02T12:08:08Z</time>
      </trkpt>
      <trkpt lat="47.7019" lon="-3.44211">
        <ele>13</ele>
        <time>2011-09-02T12:08:26Z</time>
      </trkpt>
      <trkpt lat="47.7029" lon="-3.44288">
        <ele>13</ele>
        <time>2011-09-02T12:08:52Z</time>
      </trkpt>
      <trkpt lat="47.70302" lon="-3.44295">
        <ele>13</ele>
        <time>2011-09-02T12:08:55Z</time>
      </trkpt>
      <trkpt lat="47.70315" lon="-3.44298">
        <ele>13</ele>
        <time>2011-09-02T12:08:58Z</time>
      </trkpt>
      <trkpt lat="47.70328" lon="-3.443">
        <ele>13</ele>
        <time>2011-09-02T12:09:01Z</time>
      </trkpt>
      <trkpt lat="47.70358" lon="-3.44295">
        <ele>15</ele>
        <time>2011-09-02T12:09:08Z</time>
      </trkpt>
      <trkpt lat="47.70399" lon="-3.44282">
        <ele>15</ele>
        <time>2011-09-02T12:09:18Z</time>
      </trkpt>
      <trkpt lat="47.70408" lon="-3.44282">
        <ele>16</ele>
        <time>2011-09-02T12:09:20Z</time>
      </trkpt>
      <trkpt lat="47.7042" lon="-3.44287">
        <ele>17</ele>
        <time>2011-09-02T12:09:23Z</time>
      </trkpt>
      <trkpt lat="47.70427" lon="-3.44294">
        <ele>16</ele>
        <time>2011-09-02T12:09:25Z</time>
      </trkpt>
      <trkpt lat="47.70432" lon="-3.44304">
        <ele>16</ele>
        <time>2011-09-02T12:09:27Z</time>
      </trkpt>
      <trkpt lat="47.70452" lon="-3.44392">
        <ele>16</ele>
        <time>2011-09-02T12:09:41Z</time>
      </trkpt>
      <trkpt lat="47.70455" lon="-3.44417">
        <ele>16</ele>
        <time>2011-09-02T12:09:44Z</time>
      </trkpt>
      <trkpt lat="47.70455" lon="-3.44435">
        <ele>14</ele>
        <time>2011-09-02T12:09:46Z</time>
      </trkpt>
      <trkpt lat="47.70443" lon="-3.44512">
        <ele>12</ele>
        <time>2011-09-02T12:09:53Z</time>
      </trkpt>
      <trkpt lat="47.70425" lon="-3.44611">
        <ele>12</ele>
        <time>2011-09-02T12:10:04Z</time>
      </trkpt>
      <trkpt lat="47.70401" lon="-3.44757">
        <ele>15</ele>
        <time>2011-09-02T12:10:24Z</time>
      </trkpt>
      <trkpt lat="47.70397" lon="-3.44778">
        <ele>15</ele>
        <time>2011-09-02T12:10:27Z</time>
      </trkpt>
      <trkpt lat="47.70387" lon="-3.44811">
        <ele>15</ele>
        <time>2011-09-02T12:10:32Z</time>
      </trkpt>
      <trkpt lat="47.70377" lon="-3.44836">
        <ele>15</ele>
        <time>2011-09-02T12:10:36Z</time>
      </trkpt>
      <trkpt lat="47.7036" lon="-3.44874">
        <ele>14</ele>
        <time>2011-09-02T12:10:42Z</time>
      </trkpt>
      <trkpt lat="47.70345" lon="-3.44924">
        <ele>13</ele>
        <time>2011-09-02T12:10:49Z</time>
      </trkpt>
      <trkpt lat="47.7034" lon="-3.4495">
        <ele>13</ele>
        <time>2011-09-02T12:10:53Z</time>
      </trkpt>
      <trkpt lat="47.70318" lon="-3.45121">
        <ele>13</ele>
        <time>2011-09-02T12:11:15Z</time>
      </trkpt>
      <trkpt lat="47.70304" lon="-3.45201">
        <ele>14</ele>
        <time>2011-09-02T12:11:26Z</time>
      </trkpt>
      <trkpt lat="47.70293" lon="-3.45303">
        <ele>15</ele>
        <time>2011-09-02T12:11:40Z</time>
      </trkpt>
      <trkpt lat="47.70292" lon="-3.45332">
        <ele>15</ele>
        <time>2011-09-02T12:11:44Z</time>
      </trkpt>
      <trkpt lat="47.70293" lon="-3.45353">
        <ele>15</ele>
        <time>2011-09-02T12:11:47Z</time>
      </trkpt>
      <trkpt lat="47.70307" lon="-3.45429">
        <ele>15</ele>
        <time>2011-09-02T12:11:59Z</time>
      </trkpt>
      <trkpt lat="47.7032" lon="-3.45478">
        <ele>16</ele>
        <time>2011-09-02T12:12:06Z</time>
      </trkpt>
      <trkpt lat="47.70337" lon="-3.45562">
        <ele>16</ele>
        <time>2011-09-02T12:12:18Z</time>
      </trkpt>
      <trkpt lat="47.70346" lon="-3.45578">
        <ele>17</ele>
        <time>2011-09-02T12:12:21Z</time>
      </trkpt>
      <trkpt lat="47.70359" lon="-3.45595">
        <ele>16</ele>
        <time>2011-09-02T12:12:25Z</time>
      </trkpt>
      <trkpt lat="47.70377" lon="-3.45637">
        <ele>16</ele>
        <time>2011-09-02T12:12:32Z</time>
      </trkpt>
      <trkpt lat="47.70394" lon="-3.45728">
        <ele>13</ele>
        <time>2011-09-02T12:12:43Z</time>
      </trkpt>
      <trkpt lat="47.70409" lon="-3.45791">
        <ele>10</ele>
        <time>2011-09-02T12:12:49Z</time>
      </trkpt>
      <trkpt lat="47.70429" lon="-3.45857">
        <ele>9</ele>
        <time>2011-09-02T12:12:56Z</time>
      </trkpt>
      <trkpt lat="47.7043" lon="-3.4587">
        <ele>10</ele>
        <time>2011-09-02T12:12:58Z</time>
      </trkpt>
      <trkpt lat="47.70447" lon="-3.4591">
        <ele>10</ele>
        <time>2011-09-02T12:13:05Z</time>
      </trkpt>
      <trkpt lat="47.70455" lon="-3.45926">
        <ele>9</ele>
        <time>2011-09-02T12:13:08Z</time>
      </trkpt>
      <trkpt lat="47.70544" lon="-3.46078">
        <ele>10</ele>
        <time>2011-09-02T12:13:36Z</time>
      </trkpt>
      <trkpt lat="47.70657" lon="-3.46281">
        <ele>7</ele>
        <time>2011-09-02T12:14:10Z</time>
      </trkpt>
      <trkpt lat="47.70659" lon="-3.46286">
        <ele>7</ele>
        <time>2011-09-02T12:14:11Z</time>
      </trkpt>
      <trkpt lat="47.70659" lon="-3.46297">
        <ele>7</ele>
        <time>2011-09-02T12:14:13Z</time>
      </trkpt>
      <trkpt lat="47.70655" lon="-3.46316">
        <ele>7</ele>
        <time>2011-09-02T12:14:16Z</time>
      </trkpt>
      <trkpt lat="47.70658" lon="-3.46328">
        <ele>7</ele>
        <time>2011-09-02T12:14:18Z</time>
      </trkpt>
      <trkpt lat="47.70665" lon="-3.46335">
        <ele>8</ele>
        <time>2011-09-02T12:14:20Z</time>
      </trkpt>
      <trkpt lat="47.70669" lon="-3.46334">
        <ele>8</ele>
        <time>2011-09-02T12:14:21Z</time>
      </trkpt>
      <trkpt lat="47.70677" lon="-3.46329">
        <ele>8</ele>
        <time>2011-09-02T12:14:23Z</time>
      </trkpt>
      <trkpt lat="47.70681" lon="-3.4633">
        <ele>8</ele>
        <time>2011-09-02T12:14:24Z</time>
      </trkpt>
      <trkpt lat="47.70684" lon="-3.46333">
        <ele>8</ele>
        <time>2011-09-02T12:14:25Z</time>
      </trkpt>
      <trkpt lat="47.70789" lon="-3.46516">
        <ele>9</ele>
        <time>2011-09-02T12:15:00Z</time>
      </trkpt>
      <trkpt lat="47.70835" lon="-3.46589">
        <ele>11</ele>
        <time>2011-09-02T12:15:14Z</time>
      </trkpt>
      <trkpt lat="47.70866" lon="-3.46644">
        <ele>11</ele>
        <time>2011-09-02T12:15:24Z</time>
      </trkpt>
      <trkpt lat="47.7097" lon="-3.46843">
        <ele>9</ele>
        <time>2011-09-02T12:15:59Z</time>
      </trkpt>
      <trkpt lat="47.70976" lon="-3.46859">
        <ele>9</ele>
        <time>2011-09-02T12:16:02Z</time>
      </trkpt>
      <trkpt lat="47.70983" lon="-3.46888">
        <ele>8</ele>
        <time>2011-09-02T12:16:07Z</time>
      </trkpt>
      <trkpt lat="47.70987" lon="-3.46898">
        <ele>8</ele>
        <time>2011-09-02T12:16:09Z</time>
      </trkpt>
      <trkpt lat="47.71011" lon="-3.46937">
        <ele>7</ele>
        <time>2011-09-02T12:16:16Z</time>
      </trkpt>
      <trkpt lat="47.71014" lon="-3.46955">
        <ele>6</ele>
        <time>2011-09-02T12:16:19Z</time>
      </trkpt>
      <trkpt lat="47.71016" lon="-3.4696">
        <ele>6</ele>
        <time>2011-09-02T12:16:20Z</time>
      </trkpt>
      <trkpt lat="47.71019" lon="-3.46963">
        <ele>6</ele>
        <time>2011-09-02T12:16:21Z</time>
      </trkpt>
      <trkpt lat="47.71028" lon="-3.46964">
        <ele>6</ele>
        <time>2011-09-02T12:16:24Z</time>
      </trkpt>
      <trkpt lat="47.7103" lon="-3.46967">
        <ele>6</ele>
        <time>2011-09-02T12:16:25Z</time>
      </trkpt>
      <trkpt lat="47.71067" lon="-3.47036">
        <ele>5</ele>
        <time>2011-09-02T12:16:37Z</time>
      </trkpt>
      <trkpt lat="47.71072" lon="-3.47047">
        <ele>4</ele>
        <time>2011-09-02T12:16:39Z</time>
      </trkpt>
      <trkpt lat="47.71075" lon="-3.47063">
        <ele>4</ele>
        <time>2011-09-02T12:16:42Z</time>
      </trkpt>
      <trkpt lat="47.71079" lon="-3.47075">
        <ele>4</ele>
        <time>2011-09-02T12:16:44Z</time>
      </trkpt>
      <trkpt lat="47.7111" lon="-3.47139">
        <ele>6</ele>
        <time>2011-09-02T12:16:55Z</time>
      </trkpt>
      <trkpt lat="47.71113" lon="-3.47144">
        <ele>6</ele>
        <time>2011-09-02T12:16:56Z</time>
      </trkpt>
      <trkpt lat="47.71128" lon="-3.47163">
        <ele>6</ele>
        <time>2011-09-02T12:17:00Z</time>
      </trkpt>
      <trkpt lat="47.71149" lon="-3.4718">
        <ele>6</ele>
        <time>2011-09-02T12:17:05Z</time>
      </trkpt>
      <trkpt lat="47.71167" lon="-3.47205">
        <ele>7</ele>
        <time>2011-09-02T12:17:10Z</time>
      </trkpt>
      <trkpt lat="47.71202" lon="-3.47246">
        <ele>7</ele>
        <time>2011-09-02T12:17:19Z</time>
      </trkpt>
      <trkpt lat="47.71319" lon="-3.47364">
        <ele>6</ele>
        <time>2011-09-02T12:17:49Z</time>
      </trkpt>
      <trkpt lat="47.71348" lon="-3.47402">
        <ele>4</ele>
        <time>2011-09-02T12:17:57Z</time>
      </trkpt>
      <trkpt lat="47.71361" lon="-3.47413">
        <ele>4</ele>
        <time>2011-09-02T12:18:00Z</time>
      </trkpt>
      <trkpt lat="47.71376" lon="-3.47418">
        <ele>4</ele>
        <time>2011-09-02T12:18:03Z</time>
      </trkpt>
      <trkpt lat="47.7139" lon="-3.4743">
        <ele>4</ele>
        <time>2011-09-02T12:18:06Z</time>
      </trkpt>
      <trkpt lat="47.71445" lon="-3.47486">
        <ele>5</ele>
        <time>2011-09-02T12:18:19Z</time>
      </trkpt>
      <trkpt lat="47.71477" lon="-3.47523">
        <ele>6</ele>
        <time>2011-09-02T12:18:27Z</time>
      </trkpt>
      <trkpt lat="47.71542" lon="-3.47592">
        <ele>6</ele>
        <time>2011-09-02T12:18:44Z</time>
      </trkpt>
      <trkpt lat="47.71562" lon="-3.47618">
        <ele>7</ele>
        <time>2011-09-02T12:18:50Z</time>
      </trkpt>
      <trkpt lat="47.7158" lon="-3.47645">
        <ele>8</ele>
        <time>2011-09-02T12:18:56Z</time>
      </trkpt>
      <trkpt lat="47.71708" lon="-3.4785">
        <ele>17</ele>
        <time>2011-09-02T12:19:43Z</time>
      </trkpt>
      <trkpt lat="47.71735" lon="-3.47891">
        <ele>17</ele>
        <time>2011-09-02T12:19:53Z</time>
      </trkpt>
      <trkpt lat="47.71761" lon="-3.47925">
        <ele>17</ele>
        <time>2011-09-02T12:20:02Z</time>
      </trkpt>
      <trkpt lat="47.71777" lon="-3.47941">
        <ele>17</ele>
        <time>2011-09-02T12:20:07Z</time>
      </trkpt>
      <trkpt lat="47.71806" lon="-3.47965">
        <ele>17</ele>
        <time>2011-09-02T12:20:15Z</time>
      </trkpt>
      <trkpt lat="47.71859" lon="-3.47994">
        <ele>17</ele>
        <time>2011-09-02T12:20:27Z</time>
      </trkpt>
      <trkpt lat="47.71892" lon="-3.48015">
        <ele>15</ele>
        <time>2011-09-02T12:20:34Z</time>
      </trkpt>
      <trkpt lat="47.71925" lon="-3.48026">
        <ele>15</ele>
        <time>2011-09-02T12:20:41Z</time>
      </trkpt>
      <trkpt lat="47.71953" lon="-3.48041">
        <ele>15</ele>
        <time>2011-09-02T12:20:47Z</time>
      </trkpt>
      <trkpt lat="47.71999" lon="-3.4807">
        <ele>14</ele>
        <time>2011-09-02T12:20:57Z</time>
      </trkpt>
      <trkpt lat="47.72026" lon="-3.48092">
        <ele>13</ele>
        <time>2011-09-02T12:21:03Z</time>
      </trkpt>
      <trkpt lat="47.72068" lon="-3.48141">
        <ele>12</ele>
        <time>2011-09-02T12:21:12Z</time>
      </trkpt>
      <trkpt lat="47.72331" lon="-3.48469">
        <ele>7</ele>
        <time>2011-09-02T12:22:16Z</time>
      </trkpt>
      <trkpt lat="47.72348" lon="-3.48498">
        <ele>7</ele>
        <time>2011-09-02T12:22:21Z</time>
      </trkpt>
      <trkpt lat="47.72368" lon="-3.4854">
        <ele>6</ele>
        <time>2011-09-02T12:22:28Z</time>
      </trkpt>
      <trkpt lat="47.72543" lon="-3.4897">
        <ele>8</ele>
        <time>2011-09-02T12:23:44Z</time>
      </trkpt>
      <trkpt lat="47.72611" lon="-3.49145">
        <ele>8</ele>
        <time>2011-09-02T12:24:12Z</time>
      </trkpt>
      <trkpt lat="47.72642" lon="-3.49215">
        <ele>7</ele>
        <time>2011-09-02T12:24:23Z</time>
      </trkpt>
      <trkpt lat="47.72661" lon="-3.49252">
        <ele>7</ele>
        <time>2011-09-02T12:24:29Z</time>
      </trkpt>
      <trkpt lat="47.72685" lon="-3.4929">
        <ele>6</ele>
        <time>2011-09-02T12:24:36Z</time>
      </trkpt>
      <trkpt lat="47.72704" lon="-3.49317">
        <ele>5</ele>
        <time>2011-09-02T12:24:42Z</time>
      </trkpt>
      <trkpt lat="47.7273" lon="-3.49346">
        <ele>5</ele>
        <time>2011-09-02T12:24:49Z</time>
      </trkpt>
      <trkpt lat="47.72747" lon="-3.49373">
        <ele>5</ele>
        <time>2011-09-02T12:24:54Z</time>
      </trkpt>
      <trkpt lat="47.72756" lon="-3.4938">
        <ele>4</ele>
        <time>2011-09-02T12:24:56Z</time>
      </trkpt>
      <trkpt lat="47.7277" lon="-3.49383">
        <ele>4</ele>
        <time>2011-09-02T12:24:59Z</time>
      </trkpt>
      <trkpt lat="47.72774" lon="-3.49386">
        <ele>4</ele>
        <time>2011-09-02T12:25:00Z</time>
      </trkpt>
      <trkpt lat="47.72791" lon="-3.49399">
        <ele>4</ele>
        <time>2011-09-02T12:25:04Z</time>
      </trkpt>
      <trkpt lat="47.7294" lon="-3.49538">
        <ele>8</ele>
        <time>2011-09-02T12:25:40Z</time>
      </trkpt>
      <trkpt lat="47.73022" lon="-3.4961">
        <ele>10</ele>
        <time>2011-09-02T12:26:00Z</time>
      </trkpt>
      <trkpt lat="47.73036" lon="-3.49629">
        <ele>10</ele>
        <time>2011-09-02T12:26:04Z</time>
      </trkpt>
      <trkpt lat="47.73062" lon="-3.4965">
        <ele>9</ele>
        <time>2011-09-02T12:26:10Z</time>
      </trkpt>
      <trkpt lat="47.73159" lon="-3.49725">
        <ele>8</ele>
        <time>2011-09-02T12:26:33Z</time>
      </trkpt>
      <trkpt lat="47.73172" lon="-3.49732">
        <ele>8</ele>
        <time>2011-09-02T12:26:36Z</time>
      </trkpt>
      <trkpt lat="47.732" lon="-3.49751">
        <ele>8</ele>
        <time>2011-09-02T12:26:42Z</time>
      </trkpt>
      <trkpt lat="47.73261" lon="-3.49798">
        <ele>8</ele>
        <time>2011-09-02T12:26:57Z</time>
      </trkpt>
      <trkpt lat="47.73284" lon="-3.49818">
        <ele>8</ele>
        <time>2011-09-02T12:27:04Z</time>
      </trkpt>
      <trkpt lat="47.73317" lon="-3.49842">
        <ele>6</ele>
        <time>2011-09-02T12:27:14Z</time>
      </trkpt>
      <trkpt lat="47.73338" lon="-3.49853">
        <ele>6</ele>
        <time>2011-09-02T12:27:19Z</time>
      </trkpt>
      <trkpt lat="47.734" lon="-3.49902">
        <ele>5</ele>
        <time>2011-09-02T12:27:33Z</time>
      </trkpt>
      <trkpt lat="47.73435" lon="-3.49933">
        <ele>5</ele>
        <time>2011-09-02T12:27:41Z</time>
      </trkpt>
      <trkpt lat="47.73505" lon="-3.50012">
        <ele>5</ele>
        <time>2011-09-02T12:27:59Z</time>
      </trkpt>
      <trkpt lat="47.73536" lon="-3.50043">
        <ele>6</ele>
        <time>2011-09-02T12:28:07Z</time>
      </trkpt>
      <trkpt lat="47.73582" lon="-3.50082">
        <ele>7</ele>
        <time>2011-09-02T12:28:18Z</time>
      </trkpt>
      <trkpt lat="47.73605" lon="-3.50098">
        <ele>6</ele>
        <time>2011-09-02T12:28:23Z</time>
      </trkpt>
      <trkpt lat="47.73622" lon="-3.50108">
        <ele>6</ele>
        <time>2011-09-02T12:28:27Z</time>
      </trkpt>
      <trkpt lat="47.73641" lon="-3.50115">
        <ele>6</ele>
        <time>2011-09-02T12:28:31Z</time>
      </trkpt>
      <trkpt lat="47.73674" lon="-3.50126">
        <ele>5</ele>
        <time>2011-09-02T12:28:38Z</time>
      </trkpt>
      <trkpt lat="47.73708" lon="-3.50136">
        <ele>4</ele>
        <time>2011-09-02T12:28:45Z</time>
      </trkpt>
      <trkpt lat="47.73723" lon="-3.50137">
        <ele>4</ele>
        <time>2011-09-02T12:28:48Z</time>
      </trkpt>
      <trkpt lat="47.73758" lon="-3.50133">
        <ele>4</ele>
        <time>2011-09-02T12:28:55Z</time>
      </trkpt>
      <trkpt lat="47.73776" lon="-3.50141">
        <ele>4</ele>
        <time>2011-09-02T12:28:59Z</time>
      </trkpt>
      <trkpt lat="47.73782" lon="-3.50142">
        <ele>4</ele>
        <time>2011-09-02T12:29:01Z</time>
      </trkpt>
      <trkpt lat="47.73797" lon="-3.50148">
        <ele>3</ele>
        <time>2011-09-02T12:29:05Z</time>
      </trkpt>
      <trkpt lat="47.73812" lon="-3.50152">
        <ele>3</ele>
        <time>2011-09-02T12:29:08Z</time>
      </trkpt>
      <trkpt lat="47.73831" lon="-3.50163">
        <ele>2</ele>
        <time>2011-09-02T12:29:12Z</time>
      </trkpt>
      <trkpt lat="47.73857" lon="-3.50172">
        <ele>2</ele>
        <time>2011-09-02T12:29:17Z</time>
      </trkpt>
      <trkpt lat="47.73875" lon="-3.50181">
        <ele>2</ele>
        <time>2011-09-02T12:29:21Z</time>
      </trkpt>
      <trkpt lat="47.73967" lon="-3.50219">
        <ele>6.9</ele>
        <time>2011-09-02T12:29:40Z</time>
      </trkpt>
      <trkpt lat="47.74079" lon="-3.50271">
        <ele>6.9</ele>
        <time>2011-09-02T12:30:04Z</time>
      </trkpt>
      <trkpt lat="47.74132" lon="-3.50294">
        <ele>7.2</ele>
        <time>2011-09-02T12:30:15Z</time>
      </trkpt>
      <trkpt lat="47.74175" lon="-3.5031">
        <ele>7.9</ele>
        <time>2011-09-02T12:30:24Z</time>
      </trkpt>
      <trkpt lat="47.74217" lon="-3.5033">
        <ele>8</ele>
        <time>2011-09-02T12:30:33Z</time>
      </trkpt>
      <trkpt lat="47.74252" lon="-3.50344">
        <ele>8</ele>
        <time>2011-09-02T12:30:40Z</time>
      </trkpt>
      <trkpt lat="47.74284" lon="-3.5036">
        <ele>9</ele>
        <time>2011-09-02T12:30:47Z</time>
      </trkpt>
      <trkpt lat="47.74328" lon="-3.50379">
        <ele>8.6</ele>
        <time>2011-09-02T12:30:56Z</time>
      </trkpt>
      <trkpt lat="47.7436" lon="-3.50395">
        <ele>5</ele>
        <time>2011-09-02T12:31:03Z</time>
      </trkpt>
      <trkpt lat="47.74408" lon="-3.50414">
        <ele>5</ele>
        <time>2011-09-02T12:31:13Z</time>
      </trkpt>
      <trkpt lat="47.74464" lon="-3.50441">
        <ele>9</ele>
        <time>2011-09-02T12:31:25Z</time>
      </trkpt>
      <trkpt lat="47.74533" lon="-3.50471">
        <ele>7</ele>
        <time>2011-09-02T12:31:40Z</time>
      </trkpt>
      <trkpt lat="47.74635" lon="-3.5052">
        <ele>9</ele>
        <time>2011-09-02T12:32:05Z</time>
      </trkpt>
      <trkpt lat="47.74654" lon="-3.50532">
        <ele>9</ele>
        <time>2011-09-02T12:32:10Z</time>
      </trkpt>
      <trkpt lat="47.74669" lon="-3.50544">
        <ele>10</ele>
        <time>2011-09-02T12:32:14Z</time>
      </trkpt>
      <trkpt lat="47.74711" lon="-3.50584">
        <ele>9</ele>
        <time>2011-09-02T12:32:26Z</time>
      </trkpt>
      <trkpt lat="47.74731" lon="-3.50607">
        <ele>9</ele>
        <time>2011-09-02T12:32:32Z</time>
      </trkpt>
      <trkpt lat="47.74874" lon="-3.50805">
        <ele>10</ele>
        <time>2011-09-02T12:33:16Z</time>
      </trkpt>
      <trkpt lat="47.74919" lon="-3.50872">
        <ele>12</ele>
        <time>2011-09-02T12:33:31Z</time>
      </trkpt>
      <trkpt lat="47.74923" lon="-3.50883">
        <ele>12</ele>
        <time>2011-09-02T12:33:33Z</time>
      </trkpt>
      <trkpt lat="47.74927" lon="-3.50912">
        <ele>10</ele>
        <time>2011-09-02T12:33:37Z</time>
      </trkpt>
      <trkpt lat="47.7493" lon="-3.50919">
        <ele>7</ele>
        <time>2011-09-02T12:33:38Z</time>
      </trkpt>
      <trkpt lat="47.74937" lon="-3.50931">
        <ele>7</ele>
        <time>2011-09-02T12:33:40Z</time>
      </trkpt>
      <trkpt lat="47.7495" lon="-3.50938">
        <ele>7</ele>
        <time>2011-09-02T12:33:43Z</time>
      </trkpt>
      <trkpt lat="47.74961" lon="-3.50939">
        <ele>7</ele>
        <time>2011-09-02T12:33:46Z</time>
      </trkpt>
      <trkpt lat="47.74968" lon="-3.50944">
        <ele>7</ele>
        <time>2011-09-02T12:33:48Z</time>
      </trkpt>
      <trkpt lat="47.74979" lon="-3.50955">
        <ele>7</ele>
        <time>2011-09-02T12:33:51Z</time>
      </trkpt>
      <trkpt lat="47.75003" lon="-3.50988">
        <ele>8</ele>
        <time>2011-09-02T12:33:58Z</time>
      </trkpt>
      <trkpt lat="47.75021" lon="-3.51009">
        <ele>8</ele>
        <time>2011-09-02T12:34:03Z</time>
      </trkpt>
      <trkpt lat="47.7505" lon="-3.51038">
        <ele>10</ele>
        <time>2011-09-02T12:34:11Z</time>
      </trkpt>
      <trkpt lat="47.75077" lon="-3.5106">
        <ele>11</ele>
        <time>2011-09-02T12:34:18Z</time>
      </trkpt>
      <trkpt lat="47.75156" lon="-3.5111">
        <ele>10</ele>
        <time>2011-09-02T12:34:38Z</time>
      </trkpt>
      <trkpt lat="47.75346" lon="-3.51227">
        <ele>2</ele>
        <time>2011-09-02T12:35:21Z</time>
      </trkpt>
      <trkpt lat="47.75389" lon="-3.51259">
        <ele>2</ele>
        <time>2011-09-02T12:35:31Z</time>
      </trkpt>
      <trkpt lat="47.75405" lon="-3.51274">
        <ele>2</ele>
        <time>2011-09-02T12:35:35Z</time>
      </trkpt>
      <trkpt lat="47.7542" lon="-3.51292">
        <ele>3</ele>
        <time>2011-09-02T12:35:39Z</time>
      </trkpt>
      <trkpt lat="47.75441" lon="-3.51321">
        <ele>3</ele>
        <time>2011-09-02T12:35:45Z</time>
      </trkpt>
      <trkpt lat="47.75508" lon="-3.5142">
        <ele>5</ele>
        <time>2011-09-02T12:36:05Z</time>
      </trkpt>
      <trkpt lat="47.75539" lon="-3.51472">
        <ele>5</ele>
        <time>2011-09-02T12:36:15Z</time>
      </trkpt>
      <trkpt lat="47.75591" lon="-3.51543">
        <ele>7</ele>
        <time>2011-09-02T12:36:30Z</time>
      </trkpt>
      <trkpt lat="47.75623" lon="-3.51593">
        <ele>7</ele>
        <time>2011-09-02T12:36:40Z</time>
      </trkpt>
      <trkpt lat="47.75637" lon="-3.51619">
        <ele>7</ele>
        <time>2011-09-02T12:36:45Z</time>
      </trkpt>
      <trkpt lat="47.75653" lon="-3.51659">
        <ele>7</ele>
        <time>2011-09-02T12:36:52Z</time>
      </trkpt>
      <trkpt lat="47.75663" lon="-3.51687">
        <ele>7</ele>
        <time>2011-09-02T12:36:57Z</time>
      </trkpt>
      <trkpt lat="47.75716" lon="-3.51861">
        <ele>9</ele>
        <time>2011-09-02T12:37:26Z</time>
      </trkpt>
      <trkpt lat="47.7573" lon="-3.51894">
        <ele>8</ele>
        <time>2011-09-02T12:37:32Z</time>
      </trkpt>
      <trkpt lat="47.75748" lon="-3.51926">
        <ele>7</ele>
        <time>2011-09-02T12:37:39Z</time>
      </trkpt>
      <trkpt lat="47.75766" lon="-3.51954">
        <ele>9</ele>
        <time>2011-09-02T12:37:45Z</time>
      </trkpt>
      <trkpt lat="47.75831" lon="-3.52038">
        <ele>9</ele>
        <time>2011-09-02T12:38:05Z</time>
      </trkpt>
      <trkpt lat="47.75861" lon="-3.52069">
        <ele>13</ele>
        <time>2011-09-02T12:38:13Z</time>
      </trkpt>
      <trkpt lat="47.7588" lon="-3.52085">
        <ele>10</ele>
        <time>2011-09-02T12:38:18Z</time>
      </trkpt>
      <trkpt lat="47.75904" lon="-3.52102">
        <ele>11</ele>
        <time>2011-09-02T12:38:24Z</time>
      </trkpt>
      <trkpt lat="47.75929" lon="-3.52115">
        <ele>12</ele>
        <time>2011-09-02T12:38:30Z</time>
      </trkpt>
      <trkpt lat="47.76069" lon="-3.5218">
        <ele>7</ele>
        <time>2011-09-02T12:39:03Z</time>
      </trkpt>
      <trkpt lat="47.76075" lon="-3.5218">
        <ele>8</ele>
        <time>2011-09-02T12:39:05Z</time>
      </trkpt>
      <trkpt lat="47.76079" lon="-3.52176">
        <ele>8</ele>
        <time>2011-09-02T12:39:17Z</time>
      </trkpt>
      <trkpt lat="47.76089" lon="-3.52179">
        <ele>8</ele>
        <time>2011-09-02T12:39:20Z</time>
      </trkpt>
      <trkpt lat="47.76257" lon="-3.52258">
        <ele>7</ele>
        <time>2011-09-02T12:39:57Z</time>
      </trkpt>
      <trkpt lat="47.7653" lon="-3.52379">
        <ele>8</ele>
        <time>2011-09-02T12:40:52Z</time>
      </trkpt>
      <trkpt lat="47.76588" lon="-3.52396">
        <ele>8</ele>
        <time>2011-09-02T12:41:04Z</time>
      </trkpt>
      <trkpt lat="47.76764" lon="-3.52437">
        <ele>7</ele>
        <time>2011-09-02T12:41:40Z</time>
      </trkpt>
      <trkpt lat="47.76815" lon="-3.52447">
        <ele>7</ele>
        <time>2011-09-02T12:41:50Z</time>
      </trkpt>
      <trkpt lat="47.76887" lon="-3.52465">
        <ele>7</ele>
        <time>2011-09-02T12:42:05Z</time>
      </trkpt>
      <trkpt lat="47.76925" lon="-3.52476">
        <ele>6</ele>
        <time>2011-09-02T12:42:13Z</time>
      </trkpt>
      <trkpt lat="47.76987" lon="-3.52489">
        <ele>6</ele>
        <time>2011-09-02T12:42:25Z</time>
      </trkpt>
      <trkpt lat="47.77007" lon="-3.52495">
        <ele>6</ele>
        <time>2011-09-02T12:42:29Z</time>
      </trkpt>
      <trkpt lat="47.77026" lon="-3.52503">
        <ele>7</ele>
        <time>2011-09-02T12:42:33Z</time>
      </trkpt>
      <trkpt lat="47.77047" lon="-3.52515">
        <ele>9</ele>
        <time>2011-09-02T12:42:37Z</time>
      </trkpt>
      <trkpt lat="47.77061" lon="-3.52528">
        <ele>9</ele>
        <time>2011-09-02T12:42:40Z</time>
      </trkpt>
      <trkpt lat="47.77069" lon="-3.52537">
        <ele>9</ele>
        <time>2011-09-02T12:42:42Z</time>
      </trkpt>
      <trkpt lat="47.77087" lon="-3.52563">
        <ele>8</ele>
        <time>2011-09-02T12:42:47Z</time>
      </trkpt>
      <trkpt lat="47.77118" lon="-3.52622">
        <ele>6</ele>
        <time>2011-09-02T12:42:57Z</time>
      </trkpt>
      <trkpt lat="47.7713" lon="-3.5263">
        <ele>6</ele>
        <time>2011-09-02T12:43:01Z</time>
      </trkpt>
      <trkpt lat="47.77151" lon="-3.52648">
        <ele>5</ele>
        <time>2011-09-02T12:43:09Z</time>
      </trkpt>
      <trkpt lat="47.77153" lon="-3.52654">
        <ele>5</ele>
        <time>2011-09-02T12:51:58Z</time>
      </trkpt>
      <trkpt lat="47.77155" lon="-3.52657">
        <ele>5</ele>
        <time>2011-09-02T12:52:07Z</time>
      </trkpt>
      <trkpt lat="47.77156" lon="-3.52663">
        <ele>5</ele>
        <time>2011-09-02T12:52:10Z</time>
      </trkpt>
      <trkpt lat="47.77155" lon="-3.52666">
        <ele>5</ele>
        <time>2011-09-02T12:52:11Z</time>
      </trkpt>
      <trkpt lat="47.7715" lon="-3.52668">
        <ele>5</ele>
        <time>2011-09-02T12:52:13Z</time>
      </trkpt>
      <trkpt lat="47.77142" lon="-3.52665">
        <ele>5</ele>
        <time>2011-09-02T12:52:16Z</time>
      </trkpt>
      <trkpt lat="47.77134" lon="-3.52654">
        <ele>5</ele>
        <time>2011-09-02T12:52:28Z</time>
      </trkpt>
      <trkpt lat="47.7713" lon="-3.52658">
        <ele>5</ele>
        <time>2011-09-02T12:52:35Z</time>
      </trkpt>
      <trkpt lat="47.77125" lon="-3.52655">
        <ele>6</ele>
        <time>2011-09-02T12:52:37Z</time>
      </trkpt>
      <trkpt lat="47.77115" lon="-3.5264">
        <ele>6</ele>
        <time>2011-09-02T12:52:41Z</time>
      </trkpt>
      <trkpt lat="47.77085" lon="-3.52579">
        <ele>7</ele>
        <time>2011-09-02T12:52:54Z</time>
      </trkpt>
      <trkpt lat="47.77068" lon="-3.52552">
        <ele>8</ele>
        <time>2011-09-02T12:53:00Z</time>
      </trkpt>
      <trkpt lat="47.77047" lon="-3.52527">
        <ele>8</ele>
        <time>2011-09-02T12:53:06Z</time>
      </trkpt>
      <trkpt lat="47.77036" lon="-3.52518">
        <ele>8</ele>
        <time>2011-09-02T12:53:09Z</time>
      </trkpt>
      <trkpt lat="47.77023" lon="-3.52511">
        <ele>7</ele>
        <time>2011-09-02T12:53:12Z</time>
      </trkpt>
      <trkpt lat="47.77004" lon="-3.52504">
        <ele>6</ele>
        <time>2011-09-02T12:53:16Z</time>
      </trkpt>
      <trkpt lat="47.76982" lon="-3.52498">
        <ele>6</ele>
        <time>2011-09-02T12:53:21Z</time>
      </trkpt>
      <trkpt lat="47.76876" lon="-3.52476">
        <ele>6</ele>
        <time>2011-09-02T12:53:44Z</time>
      </trkpt>
      <trkpt lat="47.76785" lon="-3.52454">
        <ele>6</ele>
        <time>2011-09-02T12:54:04Z</time>
      </trkpt>
      <trkpt lat="47.76602" lon="-3.52413">
        <ele>8</ele>
        <time>2011-09-02T12:54:45Z</time>
      </trkpt>
      <trkpt lat="47.76557" lon="-3.524">
        <ele>8</ele>
        <time>2011-09-02T12:54:55Z</time>
      </trkpt>
      <trkpt lat="47.76529" lon="-3.52391">
        <ele>8</ele>
        <time>2011-09-02T12:55:01Z</time>
      </trkpt>
      <trkpt lat="47.76506" lon="-3.52382">
        <ele>8</ele>
        <time>2011-09-02T12:55:06Z</time>
      </trkpt>
      <trkpt lat="47.76289" lon="-3.52282">
        <ele>6</ele>
        <time>2011-09-02T12:55:52Z</time>
      </trkpt>
      <trkpt lat="47.76252" lon="-3.52267">
        <ele>7</ele>
        <time>2011-09-02T12:56:00Z</time>
      </trkpt>
      <trkpt lat="47.76082" lon="-3.52187">
        <ele>7</ele>
        <time>2011-09-02T12:56:38Z</time>
      </trkpt>
      <trkpt lat="47.76071" lon="-3.52187">
        <ele>7</ele>
        <time>2011-09-02T12:56:42Z</time>
      </trkpt>
      <trkpt lat="47.76029" lon="-3.52166">
        <ele>11</ele>
        <time>2011-09-02T12:56:52Z</time>
      </trkpt>
      <trkpt lat="47.75997" lon="-3.52153">
        <ele>11</ele>
        <time>2011-09-02T12:56:59Z</time>
      </trkpt>
      <trkpt lat="47.75925" lon="-3.52119">
        <ele>12</ele>
        <time>2011-09-02T12:57:15Z</time>
      </trkpt>
      <trkpt lat="47.75895" lon="-3.52101">
        <ele>11</ele>
        <time>2011-09-02T12:57:22Z</time>
      </trkpt>
      <trkpt lat="47.75859" lon="-3.5207">
        <ele>13</ele>
        <time>2011-09-02T12:57:35Z</time>
      </trkpt>
      <trkpt lat="47.7583" lon="-3.5204">
        <ele>9</ele>
        <time>2011-09-02T12:57:43Z</time>
      </trkpt>
      <trkpt lat="47.75809" lon="-3.52012">
        <ele>9</ele>
        <time>2011-09-02T12:57:49Z</time>
      </trkpt>
      <trkpt lat="47.7579" lon="-3.51984">
        <ele>10</ele>
        <time>2011-09-02T12:57:59Z</time>
      </trkpt>
      <trkpt lat="47.75778" lon="-3.51971">
        <ele>10</ele>
        <time>2011-09-02T12:58:02Z</time>
      </trkpt>
      <trkpt lat="47.75754" lon="-3.51936">
        <ele>9</ele>
        <time>2011-09-02T12:58:09Z</time>
      </trkpt>
      <trkpt lat="47.75727" lon="-3.51882">
        <ele>8</ele>
        <time>2011-09-02T12:58:19Z</time>
      </trkpt>
      <trkpt lat="47.75713" lon="-3.51848">
        <ele>9</ele>
        <time>2011-09-02T12:58:25Z</time>
      </trkpt>
      <trkpt lat="47.75702" lon="-3.51812">
        <ele>9</ele>
        <time>2011-09-02T12:58:31Z</time>
      </trkpt>
      <trkpt lat="47.75685" lon="-3.5175">
        <ele>8</ele>
        <time>2011-09-02T12:58:41Z</time>
      </trkpt>
      <trkpt lat="47.75665" lon="-3.51686">
        <ele>7</ele>
        <time>2011-09-02T12:58:50Z</time>
      </trkpt>
      <trkpt lat="47.75655" lon="-3.51658">
        <ele>7</ele>
        <time>2011-09-02T12:58:54Z</time>
      </trkpt>
      <trkpt lat="47.75634" lon="-3.5161">
        <ele>7</ele>
        <time>2011-09-02T12:59:02Z</time>
      </trkpt>
      <trkpt lat="47.75593" lon="-3.51543">
        <ele>7</ele>
        <time>2011-09-02T12:59:15Z</time>
      </trkpt>
      <trkpt lat="47.75544" lon="-3.51477">
        <ele>5</ele>
        <time>2011-09-02T12:59:27Z</time>
      </trkpt>
      <trkpt lat="47.75505" lon="-3.51414">
        <ele>5</ele>
        <time>2011-09-02T12:59:38Z</time>
      </trkpt>
      <trkpt lat="47.75433" lon="-3.51309">
        <ele>3</ele>
        <time>2011-09-02T12:59:57Z</time>
      </trkpt>
      <trkpt lat="47.75401" lon="-3.51272">
        <ele>2</ele>
        <time>2011-09-02T13:00:05Z</time>
      </trkpt>
      <trkpt lat="47.75384" lon="-3.51256">
        <ele>2</ele>
        <time>2011-09-02T13:00:09Z</time>
      </trkpt>
      <trkpt lat="47.75371" lon="-3.51246">
        <ele>2</ele>
        <time>2011-09-02T13:00:12Z</time>
      </trkpt>
      <trkpt lat="47.75304" lon="-3.51203">
        <ele>4</ele>
        <time>2011-09-02T13:00:26Z</time>
      </trkpt>
      <trkpt lat="47.75258" lon="-3.51178">
        <ele>4</ele>
        <time>2011-09-02T13:00:36Z</time>
      </trkpt>
      <trkpt lat="47.75171" lon="-3.51122">
        <ele>8</ele>
        <time>2011-09-02T13:00:55Z</time>
      </trkpt>
      <trkpt lat="47.75109" lon="-3.51085">
        <ele>10</ele>
        <time>2011-09-02T13:01:10Z</time>
      </trkpt>
      <trkpt lat="47.75086" lon="-3.51069">
        <ele>12</ele>
        <time>2011-09-02T13:01:16Z</time>
      </trkpt>
      <trkpt lat="47.75049" lon="-3.5104">
        <ele>10</ele>
        <time>2011-09-02T13:01:24Z</time>
      </trkpt>
      <trkpt lat="47.75027" lon="-3.51017">
        <ele>9</ele>
        <time>2011-09-02T13:01:29Z</time>
      </trkpt>
      <trkpt lat="47.74995" lon="-3.5098">
        <ele>6</ele>
        <time>2011-09-02T13:01:37Z</time>
      </trkpt>
      <trkpt lat="47.7497" lon="-3.50944">
        <ele>7</ele>
        <time>2011-09-02T13:01:44Z</time>
      </trkpt>
      <trkpt lat="47.74965" lon="-3.50942">
        <ele>7</ele>
        <time>2011-09-02T13:01:45Z</time>
      </trkpt>
      <trkpt lat="47.74947" lon="-3.5094">
        <ele>7</ele>
        <time>2011-09-02T13:01:49Z</time>
      </trkpt>
      <trkpt lat="47.74939" lon="-3.50935">
        <ele>7</ele>
        <time>2011-09-02T13:01:51Z</time>
      </trkpt>
      <trkpt lat="47.74935" lon="-3.50931">
        <ele>7</ele>
        <time>2011-09-02T13:01:52Z</time>
      </trkpt>
      <trkpt lat="47.74929" lon="-3.5092">
        <ele>7</ele>
        <time>2011-09-02T13:01:54Z</time>
      </trkpt>
      <trkpt lat="47.74923" lon="-3.50885">
        <ele>11</ele>
        <time>2011-09-02T13:01:59Z</time>
      </trkpt>
      <trkpt lat="47.74915" lon="-3.50867">
        <ele>10</ele>
        <time>2011-09-02T13:02:02Z</time>
      </trkpt>
      <trkpt lat="47.74909" lon="-3.50857">
        <ele>10</ele>
        <time>2011-09-02T13:02:04Z</time>
      </trkpt>
      <trkpt lat="47.74734" lon="-3.50613">
        <ele>9</ele>
        <time>2011-09-02T13:02:53Z</time>
      </trkpt>
      <trkpt lat="47.74698" lon="-3.50574">
        <ele>10</ele>
        <time>2011-09-02T13:03:02Z</time>
      </trkpt>
      <trkpt lat="47.74667" lon="-3.50544">
        <ele>9</ele>
        <time>2011-09-02T13:03:10Z</time>
      </trkpt>
      <trkpt lat="47.74649" lon="-3.50529">
        <ele>9</ele>
        <time>2011-09-02T13:03:14Z</time>
      </trkpt>
      <trkpt lat="47.74621" lon="-3.50513">
        <ele>9</ele>
        <time>2011-09-02T13:03:20Z</time>
      </trkpt>
      <trkpt lat="47.74522" lon="-3.50467">
        <ele>7</ele>
        <time>2011-09-02T13:03:41Z</time>
      </trkpt>
      <trkpt lat="47.74346" lon="-3.50392">
        <ele>5</ele>
        <time>2011-09-02T13:04:17Z</time>
      </trkpt>
      <trkpt lat="47.74293" lon="-3.50367">
        <ele>8.7</ele>
        <time>2011-09-02T13:04:28Z</time>
      </trkpt>
      <trkpt lat="47.74169" lon="-3.50312">
        <ele>7.8</ele>
        <time>2011-09-02T13:04:53Z</time>
      </trkpt>
      <trkpt lat="47.7411" lon="-3.50288">
        <ele>6.6</ele>
        <time>2011-09-02T13:05:05Z</time>
      </trkpt>
      <trkpt lat="47.74046" lon="-3.50258">
        <ele>6.6</ele>
        <time>2011-09-02T13:05:18Z</time>
      </trkpt>
      <trkpt lat="47.73992" lon="-3.50236">
        <ele>6.4</ele>
        <time>2011-09-02T13:05:29Z</time>
      </trkpt>
      <trkpt lat="47.73945" lon="-3.50213">
        <ele>6.3</ele>
        <time>2011-09-02T13:05:39Z</time>
      </trkpt>
      <trkpt lat="47.73916" lon="-3.50202">
        <ele>2</ele>
        <time>2011-09-02T13:05:45Z</time>
      </trkpt>
      <trkpt lat="47.73824" lon="-3.50161">
        <ele>3</ele>
        <time>2011-09-02T13:06:04Z</time>
      </trkpt>
      <trkpt lat="47.73807" lon="-3.50152">
        <ele>3</ele>
        <time>2011-09-02T13:06:08Z</time>
      </trkpt>
      <trkpt lat="47.73788" lon="-3.50149">
        <ele>3</ele>
        <time>2011-09-02T13:06:12Z</time>
      </trkpt>
      <trkpt lat="47.73759" lon="-3.50135">
        <ele>4</ele>
        <time>2011-09-02T13:06:18Z</time>
      </trkpt>
      <trkpt lat="47.73749" lon="-3.50135">
        <ele>4</ele>
        <time>2011-09-02T13:06:20Z</time>
      </trkpt>
      <trkpt lat="47.73724" lon="-3.5014">
        <ele>4</ele>
        <time>2011-09-02T13:06:25Z</time>
      </trkpt>
      <trkpt lat="47.73714" lon="-3.5014">
        <ele>4</ele>
        <time>2011-09-02T13:06:27Z</time>
      </trkpt>
      <trkpt lat="47.73704" lon="-3.50137">
        <ele>4</ele>
        <time>2011-09-02T13:06:29Z</time>
      </trkpt>
      <trkpt lat="47.73638" lon="-3.50116">
        <ele>6</ele>
        <time>2011-09-02T13:06:43Z</time>
      </trkpt>
      <trkpt lat="47.73615" lon="-3.50105">
        <ele>6</ele>
        <time>2011-09-02T13:06:48Z</time>
      </trkpt>
      <trkpt lat="47.73589" lon="-3.5009">
        <ele>7</ele>
        <time>2011-09-02T13:06:54Z</time>
      </trkpt>
      <trkpt lat="47.73568" lon="-3.50075">
        <ele>6</ele>
        <time>2011-09-02T13:06:59Z</time>
      </trkpt>
      <trkpt lat="47.73515" lon="-3.50028">
        <ele>5</ele>
        <time>2011-09-02T13:07:12Z</time>
      </trkpt>
      <trkpt lat="47.73499" lon="-3.50012">
        <ele>5</ele>
        <time>2011-09-02T13:07:16Z</time>
      </trkpt>
      <trkpt lat="47.73477" lon="-3.49985">
        <ele>5</ele>
        <time>2011-09-02T13:07:22Z</time>
      </trkpt>
      <trkpt lat="47.73431" lon="-3.49937">
        <ele>5</ele>
        <time>2011-09-02T13:07:34Z</time>
      </trkpt>
      <trkpt lat="47.73394" lon="-3.49903">
        <ele>5</ele>
        <time>2011-09-02T13:07:43Z</time>
      </trkpt>
      <trkpt lat="47.73353" lon="-3.49872">
        <ele>5</ele>
        <time>2011-09-02T13:07:52Z</time>
      </trkpt>
      <trkpt lat="47.73332" lon="-3.49854">
        <ele>6</ele>
        <time>2011-09-02T13:07:57Z</time>
      </trkpt>
      <trkpt lat="47.73203" lon="-3.49754">
        <ele>8</ele>
        <time>2011-09-02T13:08:28Z</time>
      </trkpt>
      <trkpt lat="47.7318" lon="-3.49737">
        <ele>8</ele>
        <time>2011-09-02T13:08:33Z</time>
      </trkpt>
      <trkpt lat="47.7317" lon="-3.49735">
        <ele>8</ele>
        <time>2011-09-02T13:08:35Z</time>
      </trkpt>
      <trkpt lat="47.73156" lon="-3.49728">
        <ele>8</ele>
        <time>2011-09-02T13:08:38Z</time>
      </trkpt>
      <trkpt lat="47.73061" lon="-3.49651">
        <ele>9</ele>
        <time>2011-09-02T13:09:00Z</time>
      </trkpt>
      <trkpt lat="47.73047" lon="-3.49642">
        <ele>10</ele>
        <time>2011-09-02T13:09:03Z</time>
      </trkpt>
      <trkpt lat="47.73039" lon="-3.49634">
        <ele>10</ele>
        <time>2011-09-02T13:09:05Z</time>
      </trkpt>
      <trkpt lat="47.73019" lon="-3.49612">
        <ele>10</ele>
        <time>2011-09-02T13:09:10Z</time>
      </trkpt>
      <trkpt lat="47.72994" lon="-3.49592">
        <ele>10</ele>
        <time>2011-09-02T13:09:16Z</time>
      </trkpt>
      <trkpt lat="47.72955" lon="-3.49557">
        <ele>8</ele>
        <time>2011-09-02T13:09:25Z</time>
      </trkpt>
      <trkpt lat="47.72882" lon="-3.49487">
        <ele>4</ele>
        <time>2011-09-02T13:09:40Z</time>
      </trkpt>
      <trkpt lat="47.7278" lon="-3.49395">
        <ele>4</ele>
        <time>2011-09-02T13:10:02Z</time>
      </trkpt>
      <trkpt lat="47.72772" lon="-3.49388">
        <ele>4</ele>
        <time>2011-09-02T13:10:04Z</time>
      </trkpt>
      <trkpt lat="47.72758" lon="-3.49385">
        <ele>4</ele>
        <time>2011-09-02T13:10:07Z</time>
      </trkpt>
      <trkpt lat="47.72754" lon="-3.49383">
        <ele>4</ele>
        <time>2011-09-02T13:10:08Z</time>
      </trkpt>
      <trkpt lat="47.72745" lon="-3.49374">
        <ele>5</ele>
        <time>2011-09-02T13:10:10Z</time>
      </trkpt>
      <trkpt lat="47.72731" lon="-3.49354">
        <ele>5</ele>
        <time>2011-09-02T13:10:14Z</time>
      </trkpt>
      <trkpt lat="47.72702" lon="-3.49321">
        <ele>5</ele>
        <time>2011-09-02T13:10:21Z</time>
      </trkpt>
      <trkpt lat="47.72687" lon="-3.49302">
        <ele>5</ele>
        <time>2011-09-02T13:10:25Z</time>
      </trkpt>
      <trkpt lat="47.72656" lon="-3.49254">
        <ele>6</ele>
        <time>2011-09-02T13:10:34Z</time>
      </trkpt>
      <trkpt lat="47.72635" lon="-3.49213">
        <ele>7</ele>
        <time>2011-09-02T13:10:41Z</time>
      </trkpt>
      <trkpt lat="47.72604" lon="-3.49141">
        <ele>8</ele>
        <time>2011-09-02T13:10:52Z</time>
      </trkpt>
      <trkpt lat="47.72468" lon="-3.48793">
        <ele>6</ele>
        <time>2011-09-02T13:11:42Z</time>
      </trkpt>
      <trkpt lat="47.72404" lon="-3.48634">
        <ele>6</ele>
        <time>2011-09-02T13:12:04Z</time>
      </trkpt>
      <trkpt lat="47.72368" lon="-3.48548">
        <ele>6</ele>
        <time>2011-09-02T13:12:17Z</time>
      </trkpt>
      <trkpt lat="47.7235" lon="-3.48508">
        <ele>6</ele>
        <time>2011-09-02T13:12:23Z</time>
      </trkpt>
      <trkpt lat="47.72341" lon="-3.4849">
        <ele>7</ele>
        <time>2011-09-02T13:12:26Z</time>
      </trkpt>
      <trkpt lat="47.72327" lon="-3.4847">
        <ele>7</ele>
        <time>2011-09-02T13:12:30Z</time>
      </trkpt>
      <trkpt lat="47.7208" lon="-3.48166">
        <ele>11</ele>
        <time>2011-09-02T13:13:44Z</time>
      </trkpt>
      <trkpt lat="47.72023" lon="-3.48101">
        <ele>13</ele>
        <time>2011-09-02T13:14:02Z</time>
      </trkpt>
      <trkpt lat="47.72002" lon="-3.48084">
        <ele>14</ele>
        <time>2011-09-02T13:14:08Z</time>
      </trkpt>
      <trkpt lat="47.71984" lon="-3.48071">
        <ele>14</ele>
        <time>2011-09-02T13:14:13Z</time>
      </trkpt>
      <trkpt lat="47.71933" lon="-3.48043">
        <ele>15</ele>
        <time>2011-09-02T13:14:27Z</time>
      </trkpt>
      <trkpt lat="47.71918" lon="-3.48036">
        <ele>15</ele>
        <time>2011-09-02T13:14:31Z</time>
      </trkpt>
      <trkpt lat="47.7189" lon="-3.48027">
        <ele>14</ele>
        <time>2011-09-02T13:14:38Z</time>
      </trkpt>
      <trkpt lat="47.71879" lon="-3.48021">
        <ele>14</ele>
        <time>2011-09-02T13:14:41Z</time>
      </trkpt>
      <trkpt lat="47.71857" lon="-3.48005">
        <ele>14</ele>
        <time>2011-09-02T13:14:47Z</time>
      </trkpt>
      <trkpt lat="47.7183" lon="-3.47992">
        <ele>16</ele>
        <time>2011-09-02T13:14:54Z</time>
      </trkpt>
      <trkpt lat="47.71808" lon="-3.47979">
        <ele>16</ele>
        <time>2011-09-02T13:14:59Z</time>
      </trkpt>
      <trkpt lat="47.7179" lon="-3.47966">
        <ele>17</ele>
        <time>2011-09-02T13:15:03Z</time>
      </trkpt>
      <trkpt lat="47.71768" lon="-3.47946">
        <ele>17</ele>
        <time>2011-09-02T13:15:08Z</time>
      </trkpt>
      <trkpt lat="47.71751" lon="-3.47926">
        <ele>17</ele>
        <time>2011-09-02T13:15:12Z</time>
      </trkpt>
      <trkpt lat="47.71731" lon="-3.47898">
        <ele>17</ele>
        <time>2011-09-02T13:15:17Z</time>
      </trkpt>
      <trkpt lat="47.71583" lon="-3.47656">
        <ele>9</ele>
        <time>2011-09-02T13:15:51Z</time>
      </trkpt>
      <trkpt lat="47.71563" lon="-3.47625">
        <ele>7</ele>
        <time>2011-09-02T13:15:55Z</time>
      </trkpt>
      <trkpt lat="47.71536" lon="-3.47591">
        <ele>6</ele>
        <time>2011-09-02T13:16:00Z</time>
      </trkpt>
      <trkpt lat="47.71485" lon="-3.47538">
        <ele>6</ele>
        <time>2011-09-02T13:16:08Z</time>
      </trkpt>
      <trkpt lat="47.71444" lon="-3.4749">
        <ele>5</ele>
        <time>2011-09-02T13:16:15Z</time>
      </trkpt>
      <trkpt lat="47.71392" lon="-3.47436">
        <ele>4</ele>
        <time>2011-09-02T13:16:26Z</time>
      </trkpt>
      <trkpt lat="47.71382" lon="-3.47428">
        <ele>4</ele>
        <time>2011-09-02T13:16:28Z</time>
      </trkpt>
      <trkpt lat="47.71367" lon="-3.47423">
        <ele>3</ele>
        <time>2011-09-02T13:16:31Z</time>
      </trkpt>
      <trkpt lat="47.71348" lon="-3.47406">
        <ele>4</ele>
        <time>2011-09-02T13:16:35Z</time>
      </trkpt>
      <trkpt lat="47.71328" lon="-3.47382">
        <ele>5</ele>
        <time>2011-09-02T13:16:40Z</time>
      </trkpt>
      <trkpt lat="47.71292" lon="-3.47343">
        <ele>6</ele>
        <time>2011-09-02T13:16:49Z</time>
      </trkpt>
      <trkpt lat="47.7121" lon="-3.47264">
        <ele>8</ele>
        <time>2011-09-02T13:17:08Z</time>
      </trkpt>
      <trkpt lat="47.71181" lon="-3.4723">
        <ele>7</ele>
        <time>2011-09-02T13:17:15Z</time>
      </trkpt>
      <trkpt lat="47.71156" lon="-3.47199">
        <ele>6</ele>
        <time>2011-09-02T13:17:21Z</time>
      </trkpt>
      <trkpt lat="47.71119" lon="-3.47164">
        <ele>6</ele>
        <time>2011-09-02T13:17:30Z</time>
      </trkpt>
      <trkpt lat="47.7111" lon="-3.4714">
        <ele>6</ele>
        <time>2011-09-02T13:17:34Z</time>
      </trkpt>
      <trkpt lat="47.71085" lon="-3.47089">
        <ele>4</ele>
        <time>2011-09-02T13:17:42Z</time>
      </trkpt>
      <trkpt lat="47.71081" lon="-3.4707">
        <ele>4</ele>
        <time>2011-09-02T13:17:45Z</time>
      </trkpt>
      <trkpt lat="47.7107" lon="-3.47046">
        <ele>5</ele>
        <time>2011-09-02T13:17:49Z</time>
      </trkpt>
      <trkpt lat="47.71055" lon="-3.47015">
        <ele>5</ele>
        <time>2011-09-02T13:17:54Z</time>
      </trkpt>
      <trkpt lat="47.71039" lon="-3.46987">
        <ele>6</ele>
        <time>2011-09-02T13:17:59Z</time>
      </trkpt>
      <trkpt lat="47.71036" lon="-3.46985">
        <ele>6</ele>
        <time>2011-09-02T13:18:00Z</time>
      </trkpt>
      <trkpt lat="47.71026" lon="-3.46983">
        <ele>6</ele>
        <time>2011-09-02T13:18:03Z</time>
      </trkpt>
      <trkpt lat="47.71024" lon="-3.46981">
        <ele>6</ele>
        <time>2011-09-02T13:18:04Z</time>
      </trkpt>
      <trkpt lat="47.71023" lon="-3.46977">
        <ele>6</ele>
        <time>2011-09-02T13:18:05Z</time>
      </trkpt>
      <trkpt lat="47.71022" lon="-3.46964">
        <ele>6</ele>
        <time>2011-09-02T13:18:08Z</time>
      </trkpt>
      <trkpt lat="47.7102" lon="-3.4696">
        <ele>6</ele>
        <time>2011-09-02T13:18:09Z</time>
      </trkpt>
      <trkpt lat="47.70991" lon="-3.46909">
        <ele>8</ele>
        <time>2011-09-02T13:18:20Z</time>
      </trkpt>
      <trkpt lat="47.70987" lon="-3.46899">
        <ele>8</ele>
        <time>2011-09-02T13:18:22Z</time>
      </trkpt>
      <trkpt lat="47.70984" lon="-3.4688">
        <ele>8</ele>
        <time>2011-09-02T13:18:25Z</time>
      </trkpt>
      <trkpt lat="47.70981" lon="-3.46868">
        <ele>9</ele>
        <time>2011-09-02T13:18:27Z</time>
      </trkpt>
      <trkpt lat="47.70927" lon="-3.4677">
        <ele>10</ele>
        <time>2011-09-02T13:18:45Z</time>
      </trkpt>
      <trkpt lat="47.70882" lon="-3.46683">
        <ele>10</ele>
        <time>2011-09-02T13:19:00Z</time>
      </trkpt>
      <trkpt lat="47.70854" lon="-3.46632">
        <ele>11</ele>
        <time>2011-09-02T13:19:09Z</time>
      </trkpt>
      <trkpt lat="47.70788" lon="-3.46522">
        <ele>9</ele>
        <time>2011-09-02T13:19:29Z</time>
      </trkpt>
      <trkpt lat="47.70715" lon="-3.46395">
        <ele>9</ele>
        <time>2011-09-02T13:19:52Z</time>
      </trkpt>
      <trkpt lat="47.70693" lon="-3.46354">
        <ele>9</ele>
        <time>2011-09-02T13:19:59Z</time>
      </trkpt>
      <trkpt lat="47.70685" lon="-3.46348">
        <ele>9</ele>
        <time>2011-09-02T13:20:01Z</time>
      </trkpt>
      <trkpt lat="47.70681" lon="-3.46348">
        <ele>9</ele>
        <time>2011-09-02T13:20:02Z</time>
      </trkpt>
      <trkpt lat="47.70675" lon="-3.46354">
        <ele>9</ele>
        <time>2011-09-02T13:20:04Z</time>
      </trkpt>
      <trkpt lat="47.70671" lon="-3.46354">
        <ele>9</ele>
        <time>2011-09-02T13:20:05Z</time>
      </trkpt>
      <trkpt lat="47.70666" lon="-3.46352">
        <ele>7</ele>
        <time>2011-09-02T13:20:06Z</time>
      </trkpt>
      <trkpt lat="47.70663" lon="-3.46347">
        <ele>7</ele>
        <time>2011-09-02T13:20:07Z</time>
      </trkpt>
      <trkpt lat="47.70661" lon="-3.46342">
        <ele>7</ele>
        <time>2011-09-02T13:20:08Z</time>
      </trkpt>
      <trkpt lat="47.70662" lon="-3.46336">
        <ele>7</ele>
        <time>2011-09-02T13:20:09Z</time>
      </trkpt>
      <trkpt lat="47.70666" lon="-3.46318">
        <ele>7</ele>
        <time>2011-09-02T13:20:12Z</time>
      </trkpt>
      <trkpt lat="47.70666" lon="-3.46312">
        <ele>7</ele>
        <time>2011-09-02T13:20:13Z</time>
      </trkpt>
      <trkpt lat="47.70656" lon="-3.46287">
        <ele>6</ele>
        <time>2011-09-02T13:20:17Z</time>
      </trkpt>
      <trkpt lat="47.70632" lon="-3.46243">
        <ele>7</ele>
        <time>2011-09-02T13:20:24Z</time>
      </trkpt>
      <trkpt lat="47.70568" lon="-3.46134">
        <ele>8</ele>
        <time>2011-09-02T13:20:44Z</time>
      </trkpt>
      <trkpt lat="47.7051" lon="-3.46019">
        <ele>10</ele>
        <time>2011-09-02T13:21:02Z</time>
      </trkpt>
      <trkpt lat="47.70478" lon="-3.45969">
        <ele>9</ele>
        <time>2011-09-02T13:21:11Z</time>
      </trkpt>
      <trkpt lat="47.70459" lon="-3.45934">
        <ele>9</ele>
        <time>2011-09-02T13:21:17Z</time>
      </trkpt>
      <trkpt lat="47.7043" lon="-3.45867">
        <ele>10</ele>
        <time>2011-09-02T13:21:26Z</time>
      </trkpt>
      <trkpt lat="47.70415" lon="-3.45821">
        <ele>9</ele>
        <time>2011-09-02T13:21:32Z</time>
      </trkpt>
      <trkpt lat="47.70394" lon="-3.45739">
        <ele>13</ele>
        <time>2011-09-02T13:21:44Z</time>
      </trkpt>
      <trkpt lat="47.70384" lon="-3.45676">
        <ele>14</ele>
        <time>2011-09-02T13:21:53Z</time>
      </trkpt>
      <trkpt lat="47.70376" lon="-3.45642">
        <ele>16</ele>
        <time>2011-09-02T13:21:58Z</time>
      </trkpt>
      <trkpt lat="47.70371" lon="-3.45631">
        <ele>16</ele>
        <time>2011-09-02T13:22:00Z</time>
      </trkpt>
      <trkpt lat="47.70353" lon="-3.45605">
        <ele>16</ele>
        <time>2011-09-02T13:22:05Z</time>
      </trkpt>
      <trkpt lat="47.70345" lon="-3.45585">
        <ele>17</ele>
        <time>2011-09-02T13:22:08Z</time>
      </trkpt>
      <trkpt lat="47.70341" lon="-3.45569">
        <ele>17</ele>
        <time>2011-09-02T13:22:10Z</time>
      </trkpt>
      <trkpt lat="47.70304" lon="-3.45382">
        <ele>15</ele>
        <time>2011-09-02T13:22:35Z</time>
      </trkpt>
      <trkpt lat="47.703" lon="-3.45342">
        <ele>15</ele>
        <time>2011-09-02T13:22:40Z</time>
      </trkpt>
      <trkpt lat="47.70309" lon="-3.45281">
        <ele>15</ele>
        <time>2011-09-02T13:22:47Z</time>
      </trkpt>
      <trkpt lat="47.70311" lon="-3.45231">
        <ele>14</ele>
        <time>2011-09-02T13:22:52Z</time>
      </trkpt>
      <trkpt lat="47.70315" lon="-3.45181">
        <ele>14</ele>
        <time>2011-09-02T13:22:57Z</time>
      </trkpt>
      <trkpt lat="47.70326" lon="-3.45114">
        <ele>12</ele>
        <time>2011-09-02T13:23:04Z</time>
      </trkpt>
      <trkpt lat="47.70333" lon="-3.45043">
        <ele>12</ele>
        <time>2011-09-02T13:23:13Z</time>
      </trkpt>
      <trkpt lat="47.70345" lon="-3.44953">
        <ele>13</ele>
        <time>2011-09-02T13:23:24Z</time>
      </trkpt>
      <trkpt lat="47.7035" lon="-3.44929">
        <ele>13</ele>
        <time>2011-09-02T13:23:27Z</time>
      </trkpt>
      <trkpt lat="47.70357" lon="-3.44899">
        <ele>14</ele>
        <time>2011-09-02T13:23:31Z</time>
      </trkpt>
      <trkpt lat="47.70364" lon="-3.44877">
        <ele>14</ele>
        <time>2011-09-02T13:23:34Z</time>
      </trkpt>
      <trkpt lat="47.70384" lon="-3.44829">
        <ele>15</ele>
        <time>2011-09-02T13:23:41Z</time>
      </trkpt>
      <trkpt lat="47.70397" lon="-3.44794">
        <ele>15</ele>
        <time>2011-09-02T13:23:46Z</time>
      </trkpt>
      <trkpt lat="47.7041" lon="-3.44738">
        <ele>14</ele>
        <time>2011-09-02T13:23:53Z</time>
      </trkpt>
      <trkpt lat="47.70426" lon="-3.44637">
        <ele>12</ele>
        <time>2011-09-02T13:24:03Z</time>
      </trkpt>
      <trkpt lat="47.70429" lon="-3.44588">
        <ele>11</ele>
        <time>2011-09-02T13:24:07Z</time>
      </trkpt>
      <trkpt lat="47.70432" lon="-3.44557">
        <ele>12</ele>
        <time>2011-09-02T13:24:10Z</time>
      </trkpt>
      <trkpt lat="47.70451" lon="-3.44445">
        <ele>14</ele>
        <time>2011-09-02T13:24:23Z</time>
      </trkpt>
      <trkpt lat="47.70452" lon="-3.4442">
        <ele>14</ele>
        <time>2011-09-02T13:24:26Z</time>
      </trkpt>
      <trkpt lat="47.70449" lon="-3.44395">
        <ele>16</ele>
        <time>2011-09-02T13:24:29Z</time>
      </trkpt>
      <trkpt lat="47.7044" lon="-3.44355">
        <ele>16</ele>
        <time>2011-09-02T13:24:34Z</time>
      </trkpt>
      <trkpt lat="47.70429" lon="-3.44322">
        <ele>16</ele>
        <time>2011-09-02T13:24:39Z</time>
      </trkpt>
      <trkpt lat="47.70426" lon="-3.44316">
        <ele>16</ele>
        <time>2011-09-02T13:24:40Z</time>
      </trkpt>
      <trkpt lat="47.70419" lon="-3.44307">
        <ele>16</ele>
        <time>2011-09-02T13:24:42Z</time>
      </trkpt>
      <trkpt lat="47.7041" lon="-3.443">
        <ele>15</ele>
        <time>2011-09-02T13:24:44Z</time>
      </trkpt>
      <trkpt lat="47.70394" lon="-3.44296">
        <ele>15</ele>
        <time>2011-09-02T13:24:47Z</time>
      </trkpt>
      <trkpt lat="47.70349" lon="-3.44307">
        <ele>14</ele>
        <time>2011-09-02T13:24:55Z</time>
      </trkpt>
      <trkpt lat="47.70319" lon="-3.44311">
        <ele>13</ele>
        <time>2011-09-02T13:25:00Z</time>
      </trkpt>
      <trkpt lat="47.70302" lon="-3.44309">
        <ele>13</ele>
        <time>2011-09-02T13:25:03Z</time>
      </trkpt>
      <trkpt lat="47.70291" lon="-3.44304">
        <ele>13</ele>
        <time>2011-09-02T13:25:05Z</time>
      </trkpt>
      <trkpt lat="47.70275" lon="-3.44295">
        <ele>13</ele>
        <time>2011-09-02T13:25:08Z</time>
      </trkpt>
      <trkpt lat="47.70255" lon="-3.4428">
        <ele>13</ele>
        <time>2011-09-02T13:25:12Z</time>
      </trkpt>
      <trkpt lat="47.70198" lon="-3.44235">
        <ele>13</ele>
        <time>2011-09-02T13:25:23Z</time>
      </trkpt>
      <trkpt lat="47.70152" lon="-3.442">
        <ele>12</ele>
        <time>2011-09-02T13:25:32Z</time>
      </trkpt>
      <trkpt lat="47.70114" lon="-3.44169">
        <ele>12</ele>
        <time>2011-09-02T13:25:40Z</time>
      </trkpt>
      <trkpt lat="47.701" lon="-3.44153">
        <ele>11</ele>
        <time>2011-09-02T13:25:43Z</time>
      </trkpt>
      <trkpt lat="47.70092" lon="-3.44142">
        <ele>11</ele>
        <time>2011-09-02T13:25:45Z</time>
      </trkpt>
      <trkpt lat="47.70079" lon="-3.44115">
        <ele>10</ele>
        <time>2011-09-02T13:25:49Z</time>
      </trkpt>
      <trkpt lat="47.70069" lon="-3.44076">
        <ele>11</ele>
        <time>2011-09-02T13:25:54Z</time>
      </trkpt>
      <trkpt lat="47.70065" lon="-3.44043">
        <ele>11</ele>
        <time>2011-09-02T13:25:58Z</time>
      </trkpt>
      <trkpt lat="47.70067" lon="-3.44018">
        <ele>11</ele>
        <time>2011-09-02T13:26:01Z</time>
      </trkpt>
      <trkpt lat="47.70073" lon="-3.43984">
        <ele>12</ele>
        <time>2011-09-02T13:26:05Z</time>
      </trkpt>
      <trkpt lat="47.70149" lon="-3.43695">
        <ele>10</ele>
        <time>2011-09-02T13:26:34Z</time>
      </trkpt>
      <trkpt lat="47.70186" lon="-3.4354">
        <ele>7</ele>
        <time>2011-09-02T13:26:49Z</time>
      </trkpt>
      <trkpt lat="47.7019" lon="-3.43508">
        <ele>7</ele>
        <time>2011-09-02T13:26:52Z</time>
      </trkpt>
      <trkpt lat="47.70194" lon="-3.43463">
        <ele>7</ele>
        <time>2011-09-02T13:26:56Z</time>
      </trkpt>
      <trkpt lat="47.70198" lon="-3.43382">
        <ele>6</ele>
        <time>2011-09-02T13:27:03Z</time>
      </trkpt>
      <trkpt lat="47.70203" lon="-3.43277">
        <ele>5</ele>
        <time>2011-09-02T13:27:12Z</time>
      </trkpt>
      <trkpt lat="47.70209" lon="-3.43194">
        <ele>5</ele>
        <time>2011-09-02T13:27:23Z</time>
      </trkpt>
      <trkpt lat="47.70217" lon="-3.4317">
        <ele>5</ele>
        <time>2011-09-02T13:27:26Z</time>
      </trkpt>
      <trkpt lat="47.70233" lon="-3.43151">
        <ele>4</ele>
        <time>2011-09-02T13:27:32Z</time>
      </trkpt>
      <trkpt lat="47.7024" lon="-3.43148">
        <ele>4</ele>
        <time>2011-09-02T13:27:40Z</time>
      </trkpt>
      <trkpt lat="47.70257" lon="-3.43156">
        <ele>5</ele>
        <time>2011-09-02T13:27:45Z</time>
      </trkpt>
      <trkpt lat="47.70264" lon="-3.43156">
        <ele>5</ele>
        <time>2011-09-02T13:27:48Z</time>
      </trkpt>
      <trkpt lat="47.70269" lon="-3.43142">
        <ele>5</ele>
        <time>2011-09-02T13:27:51Z</time>
      </trkpt>
      <trkpt lat="47.70275" lon="-3.43107">
        <ele>5</ele>
        <time>2011-09-02T13:27:58Z</time>
      </trkpt>
    </trkseg>
  </trk>
</gpx>